Time;durP1;ratioP1;P1;durP2;ratioP2;P2;SDS_P1;SDS_P2;PMS_P1;PMS_P2;Temp;Humidity;BMP_temperature;BMP_pressure;BME280_temperature;BME280_humidity;BME280_pressure;Samples;Min_cycle;Max_cycle;Signal;HPM_P1;HPM_P2
2023/12/15 05:32:30;;;;;;;;;11.50;10.50;;;;;19.23;47.14;102867.41;5042016;28;45750;-77
2023/12/15 05:34:55;;;;;;;;;11.75;10.75;;;;;19.20;47.32;102864.84;5055435;28;46119;-78
2023/12/15 05:37:21;;;;;;;;;10.00;10.00;;;;;19.10;47.57;102861.69;5055891;28;45458;-77
2023/12/15 05:39:46;;;;;;;;;14.00;11.25;;;;;19.17;47.68;102855.00;5055535;28;45478;-77
2023/12/15 05:42:11;;;;;;;;;10.00;10.00;;;;;19.33;47.42;102862.41;5055612;28;46202;-78
2023/12/15 05:44:41;;;;;;;;;13.75;12.50;;;;;19.40;46.76;102869.28;5055386;28;45451;-77
2023/12/15 05:47:06;;;;;;;;;11.75;10.50;;;;;19.39;46.96;102873.88;5055498;28;45185;-77
2023/12/15 05:49:34;;;;;;;;;13.00;9.50;;;;;19.25;46.87;102868.22;5055463;28;45370;-78
2023/12/15 05:51:59;;;;;;;;;15.00;12.00;;;;;19.24;47.16;102869.16;5055262;28;45574;-78
2023/12/15 05:54:24;;;;;;;;;13.75;11.00;;;;;19.02;47.04;102834.00;5054746;28;46123;-76
2023/12/15 05:56:50;;;;;;;;;12.00;11.25;;;;;19.17;47.32;102876.75;5054944;28;45442;-77
2023/12/15 05:59:15;;;;;;;;;11.50;11.50;;;;;19.16;47.24;102885.84;5054904;28;45355;-77
2023/12/15 06:01:40;;;;;;;;;13.00;13.00;;;;;19.11;47.37;102868.91;5054096;28;45888;-77
2023/12/15 06:04:06;;;;;;;;;12.25;12.25;;;;;19.14;47.49;102871.44;5053890;28;45670;-77
2023/12/15 06:06:31;;;;;;;;;14.00;12.00;;;;;19.14;47.64;102857.84;5054401;28;45395;-76
2023/12/15 06:08:57;;;;;;;;;11.75;11.75;;;;;19.25;47.31;102860.94;5054747;28;45319;-77
2023/12/15 06:11:23;;;;;;;;;13.00;10.00;;;;;19.34;47.29;102859.63;5054813;28;46084;-77
2023/12/15 06:13:48;;;;;;;;;11.50;10.25;;;;;19.43;46.86;102877.31;5054847;28;46125;-77
2023/12/15 06:16:18;;;;;;;;;10.75;10.75;;;;;19.41;47.23;102871.94;5056423;28;45658;-77
2023/12/15 06:18:44;;;;;;;;;14.25;13.25;;;;;19.55;46.89;102887.66;5060823;28;45434;-78
2023/12/15 06:21:09;;;;;;;;;13.50;11.25;;;;;19.42;46.74;102883.72;5055052;28;45470;-78
2023/12/15 06:23:34;;;;;;;;;12.00;10.25;;;;;19.53;46.56;102892.28;5054474;28;48646;-75
2023/12/15 06:26:00;;;;;;;;;11.00;9.50;;;;;19.49;46.59;102877.91;5036416;28;48436;-77
2023/12/15 06:28:25;;;;;;;;;13.75;13.00;;;;;19.53;46.56;102889.56;5051799;28;45458;-77
2023/12/15 06:30:50;;;;;;;;;12.25;12.25;;;;;19.59;46.63;102894.69;5055357;28;45553;-77
2023/12/15 06:33:15;;;;;;;;;10.00;10.00;;;;;19.63;46.23;102893.59;5055618;28;45953;-77
2023/12/15 06:35:41;;;;;;;;;11.50;10.75;;;;;19.73;46.15;102908.50;5073782;28;47415;-76
2023/12/15 06:38:06;;;;;;;;;14.00;14.00;;;;;19.76;46.21;102918.34;5074716;28;45315;-77
2023/12/15 06:40:31;;;;;;;;;14.00;13.00;;;;;19.74;45.95;102906.63;5074326;28;45625;-76
2023/12/15 06:42:57;;;;;;;;;12.50;12.00;;;;;19.78;46.42;102917.31;5074006;28;45494;-77
2023/12/15 06:45:22;;;;;;;;;14.50;13.00;;;;;19.59;45.97;102890.13;5073495;28;45399;-76
2023/12/15 06:47:48;;;;;;;;;14.00;13.00;;;;;19.83;46.15;102914.34;5056147;28;45687;-78
2023/12/15 06:50:14;;;;;;;;;14.25;12.25;;;;;19.81;46.27;102917.16;5073965;28;53293;-77
2023/12/15 06:52:40;;;;;;;;;15.25;11.75;;;;;19.83;46.07;102907.06;5074438;28;46089;-77
2023/12/15 06:55:06;;;;;;;;;11.50;9.75;;;;;19.87;46.12;102915.97;5073992;28;45396;-77
2023/12/15 06:57:31;;;;;;;;;12.75;12.25;;;;;19.91;46.08;102933.88;5052168;28;45309;-78
2023/12/15 06:59:56;;;;;;;;;13.50;12.00;;;;;19.96;46.06;102964.50;5060907;28;45249;-76
2023/12/15 07:02:22;;;;;;;;;13.50;10.75;;;;;19.72;46.71;102960.28;5072866;28;61927;-78
2023/12/15 07:04:47;;;;;;;;;13.75;12.75;;;;;19.81;46.45;102970.72;5073959;28;45201;-78
2023/12/15 07:07:12;;;;;;;;;14.25;13.00;;;;;19.69;46.63;102965.88;5073378;28;55319;-77
2023/12/15 07:09:38;;;;;;;;;16.00;14.25;;;;;19.60;46.77;102965.38;5073574;28;45446;-77
2023/12/15 07:12:03;;;;;;;;;11.00;11.00;;;;;19.72;46.53;102973.91;5070955;28;52510;-77
2023/12/15 07:14:29;;;;;;;;;11.00;11.00;;;;;19.70;46.73;102986.69;5073394;28;45465;-77
2023/12/15 07:16:55;;;;;;;;;15.00;13.25;;;;;19.76;46.48;103008.16;5065988;28;45382;-78
2023/12/15 07:19:20;;;;;;;;;12.75;11.75;;;;;19.72;46.45;103012.00;5073246;28;45462;-77
2023/12/15 07:21:46;;;;;;;;;15.50;14.25;;;;;19.62;46.53;103012.44;5073674;28;46017;-79
2023/12/15 07:24:12;;;;;;;;;12.25;12.25;;;;;19.52;46.78;103021.09;5055614;28;45698;-79
2023/12/15 07:26:38;;;;;;;;;14.00;12.50;;;;;19.46;46.43;103018.66;5075754;28;45335;-79
2023/12/15 07:29:03;;;;;;;;;12.50;12.50;;;;;19.56;46.75;103014.56;5077919;28;45541;-76
2023/12/15 07:31:29;;;;;;;;;11.50;9.25;;;;;19.47;46.98;103012.25;5077215;28;45935;-80
2023/12/15 07:33:54;;;;;;;;;18.00;13.75;;;;;19.31;47.02;103008.50;5076570;28;45504;-76
2023/12/15 07:36:19;;;;;;;;;12.50;11.00;;;;;19.47;47.12;103009.53;5077433;28;45366;-75
2023/12/15 07:38:46;;;;;;;;;13.75;13.25;;;;;19.45;46.85;103016.88;5076349;28;60211;-75
2023/12/15 07:41:11;;;;;;;;;13.00;13.00;;;;;19.56;46.53;103020.03;5077521;28;46201;-77
2023/12/15 07:43:37;;;;;;;;;14.50;13.00;;;;;19.38;46.98;103027.16;5077074;28;45306;-77
2023/12/15 07:46:03;;;;;;;;;19.00;15.25;;;;;19.28;46.51;103023.09;5077782;28;45263;-78
2023/12/15 07:48:28;;;;;;;;;16.50;14.75;;;;;19.35;47.00;103043.63;5078289;28;45502;-76
2023/12/15 07:50:54;;;;;;;;;14.00;13.25;;;;;19.32;47.14;103032.00;5077460;28;47371;-75
2023/12/15 07:53:19;;;;;;;;;18.75;14.50;;;;;19.43;46.80;103046.88;5072518;28;45499;-77
2023/12/15 07:55:45;;;;;;;;;14.00;14.00;;;;;19.29;46.87;103024.88;5068847;28;45216;-74
2023/12/15 07:58:10;;;;;;;;;12.50;12.50;;;;;19.47;46.90;103040.38;5068542;28;45466;-73
2023/12/15 08:00:35;;;;;;;;;17.25;15.50;;;;;19.30;46.31;103004.88;5068956;28;53536;-80
2023/12/15 08:03:01;;;;;;;;;13.00;11.50;;;;;19.45;46.47;103053.13;5058117;28;60095;-76
2023/12/15 08:05:26;;;;;;;;;13.00;12.00;;;;;19.48;46.46;103053.00;5077052;28;45462;-73
2023/12/15 08:07:52;;;;;;;;;18.00;14.75;;;;;19.46;46.41;103043.13;5067024;28;45469;-75
2023/12/15 08:10:17;;;;;;;;;12.75;9.00;;;;;19.40;46.57;103032.50;5058821;28;46033;-73
2023/12/15 08:12:43;;;;;;;;;14.50;12.50;;;;;19.49;46.57;103052.06;5074404;28;45469;-74
2023/12/15 08:15:08;;;;;;;;;13.50;13.50;;;;;19.62;46.08;103071.41;5073887;28;45398;-73
2023/12/15 08:17:33;;;;;;;;;19.75;18.25;;;;;19.64;46.20;103074.97;5068186;28;45312;-72
2023/12/15 08:19:59;;;;;;;;;18.25;17.00;;;;;19.62;46.21;103068.69;5076435;28;46065;-77
2023/12/15 08:22:24;;;;;;;;;9.25;9.25;;;;;19.45;46.40;103057.69;5076620;28;45397;-76
2023/12/15 08:24:54;;;;;;;;;16.75;15.25;;;;;19.50;46.32;103072.88;5076687;28;45594;-78
2023/12/15 08:27:20;;;;;;;;;17.25;15.00;;;;;19.48;46.08;103073.91;5074132;28;45594;-75
2023/12/15 08:29:46;;;;;;;;;13.50;12.50;;;;;19.58;46.11;103087.00;5066670;28;45704;-78
2023/12/15 08:32:11;;;;;;;;;16.00;13.25;;;;;19.54;46.05;103081.78;5054810;28;45501;-76
2023/12/15 08:34:37;;;;;;;;;14.00;14.00;;;;;19.67;45.87;103082.06;5044618;28;45434;-77
2023/12/15 08:37:03;;;;;;;;;16.75;15.00;;;;;19.73;46.18;103082.69;5046789;28;46657;-78
2023/12/15 08:39:29;;;;;;;;;15.75;14.50;;;;;19.79;45.64;103081.50;5018167;28;47399;-75
2023/12/15 08:41:54;;;;;;;;;23.75;21.00;;;;;19.65;45.71;103077.59;5033282;28;45431;-76
2023/12/15 08:44:19;;;;;;;;;8.75;6.50;;;;;19.98;45.67;103098.75;5043684;28;45577;-77
2023/12/15 08:46:45;;;;;;;;;16.25;16.25;;;;;19.99;45.29;103104.09;5043057;28;45284;-77
2023/12/15 08:49:10;;;;;;;;;18.75;18.00;;;;;20.08;45.44;103105.50;5039247;28;46440;-78
2023/12/15 08:51:35;;;;;;;;;12.75;12.75;;;;;20.19;45.07;103107.69;5017111;28;52082;-77
2023/12/15 08:54:00;;;;;;;;;19.25;15.25;;;;;20.28;45.07;103102.69;5035630;28;45538;-76
2023/12/15 08:56:26;;;;;;;;;22.00;20.25;;;;;20.26;45.08;103114.59;5035278;28;53279;-77
2023/12/15 08:58:51;;;;;;;;;17.25;15.00;;;;;20.14;45.22;103098.88;5038611;28;45876;-78
2023/12/15 09:01:16;;;;;;;;;18.00;15.50;;;;;20.20;45.27;103106.75;5035634;28;45342;-75
2023/12/15 09:03:42;;;;;;;;;15.75;15.75;;;;;20.11;45.22;103113.53;5035690;28;45256;-77
2023/12/15 09:06:10;;;;;;;;;19.50;18.00;;;;;20.01;45.75;103098.56;5035629;28;45249;-77
2023/12/15 09:08:36;;;;;;;;;18.00;18.00;;;;;20.13;45.59;103117.06;5034169;28;47044;-77
2023/12/15 09:11:01;;;;;;;;;18.25;16.25;;;;;20.26;45.28;103106.44;5033878;28;45702;-76
2023/12/15 09:13:27;;;;;;;;;17.25;17.25;;;;;20.33;44.97;103113.38;5035749;28;45463;-76
2023/12/15 09:15:52;;;;;;;;;18.50;17.75;;;;;20.33;45.22;103121.53;5033302;28;45337;-77
2023/12/15 09:18:18;;;;;;;;;21.50;21.50;;;;;20.25;45.37;103115.56;5024684;28;47057;-76
2023/12/15 09:20:43;;;;;;;;;19.75;18.25;;;;;20.49;45.29;103127.16;5038734;28;45553;-77
2023/12/15 09:23:11;;;;;;;;;25.25;21.50;;;;;20.46;44.97;103136.34;5035389;28;45540;-77
2023/12/15 09:25:39;;;;;;;;;17.75;12.75;;;;;20.44;45.36;103142.81;5034940;28;45602;-77
2023/12/15 09:28:05;;;;;;;;;18.75;18.50;;;;;20.48;45.15;103130.84;5034923;28;45398;-78
2023/12/15 09:30:33;;;;;;;;;20.00;17.25;;;;;20.35;44.97;103128.69;5034907;28;45306;-76
2023/12/15 09:32:59;;;;;;;;;20.75;17.75;;;;;20.32;45.62;103147.03;5055858;28;45456;-76
2023/12/15 09:35:24;;;;;;;;;19.00;19.00;;;;;20.00;45.97;103133.09;5051883;28;45500;-76
2023/12/15 09:37:50;;;;;;;;;19.25;17.25;;;;;20.11;45.92;103142.59;5055308;28;45552;-78
2023/12/15 09:40:20;;;;;;;;;16.50;16.00;;;;;20.24;46.25;103138.34;5055022;28;45430;-76
2023/12/15 09:42:46;;;;;;;;;15.75;15.25;;;;;20.39;45.56;103145.78;5054539;28;45396;-78
2023/12/15 09:45:11;;;;;;;;;17.25;17.25;;;;;20.36;45.60;103132.31;5074695;28;53010;-76
2023/12/15 09:47:43;;;;;;;;;25.50;17.25;;;;;20.33;45.62;103137.91;5072883;28;46513;-76
2023/12/15 09:50:11;;;;;;;;;15.50;14.75;;;;;20.36;45.49;103155.00;5055849;28;45966;-76
2023/12/15 09:52:39;;;;;;;;;20.75;17.25;;;;;20.39;45.70;103156.69;5075388;28;45400;-76
2023/12/15 09:55:06;;;;;;;;;5.50;5.50;;;;;20.42;45.64;103186.50;5075367;28;45449;-76
2023/12/15 09:57:33;;;;;;;;;21.00;17.00;;;;;20.45;45.42;103174.56;5072555;28;47289;-78
2023/12/15 09:59:58;;;;;;;;;23.25;19.75;;;;;20.37;45.83;103183.13;5062251;28;45354;-77
2023/12/15 10:02:24;;;;;;;;;14.00;13.25;;;;;20.38;45.95;103172.16;5075216;28;45566;-78
2023/12/15 10:04:50;;;;;;;;;20.00;16.50;;;;;20.53;45.67;103177.81;5074804;28;55946;-78
2023/12/15 10:07:15;;;;;;;;;20.75;18.75;;;;;20.41;45.81;103189.31;5075262;28;45389;-77
2023/12/15 10:09:40;;;;;;;;;19.00;16.75;;;;;20.46;45.75;103193.56;5075191;28;45350;-78
2023/12/15 10:12:12;;;;;;;;;25.50;22.00;;;;;20.39;45.65;103154.84;5075335;28;45548;-82
2023/12/15 10:14:38;;;;;;;;;21.75;21.75;;;;;20.58;45.45;103184.81;5075245;28;45174;-78
2023/12/15 10:17:09;;;;;;;;;21.25;17.50;;;;;20.60;45.11;103201.94;5066341;28;45598;-77
2023/12/15 10:19:34;;;;;;;;;13.25;13.25;;;;;20.68;45.17;103196.13;5068341;28;45712;-76
2023/12/15 10:22:02;;;;;;;;;18.75;18.75;;;;;20.69;45.16;103193.31;5075022;28;45446;-80
2023/12/15 10:24:27;;;;;;;;;23.00;19.00;;;;;20.73;45.06;103197.69;5074730;28;45516;-78
2023/12/15 10:26:53;;;;;;;;;19.00;17.25;;;;;20.74;44.88;103190.38;5065352;28;45870;-77
2023/12/15 10:29:19;;;;;;;;;21.00;19.75;;;;;20.82;44.77;103199.06;5074895;28;45324;-77
2023/12/15 10:31:44;;;;;;;;;24.75;23.00;;;;;20.89;44.88;103213.28;5074293;28;46885;-78
2023/12/15 10:34:10;;;;;;;;;18.75;17.50;;;;;20.82;44.96;103207.25;5073265;28;45458;-77
2023/12/15 10:36:40;;;;;;;;;21.00;18.00;;;;;20.82;45.19;103195.44;5074744;28;45494;-76
2023/12/15 10:39:06;;;;;;;;;26.00;24.25;;;;;20.97;44.83;103230.13;5074857;28;45269;-75
2023/12/15 10:41:34;;;;;;;;;26.50;23.00;;;;;21.01;45.18;103237.22;5074483;28;45232;-76
2023/12/15 10:44:00;;;;;;;;;21.00;21.00;;;;;21.11;44.55;103247.56;5074905;28;45519;-77
2023/12/15 10:46:27;;;;;;;;;24.00;21.25;;;;;21.27;44.44;103244.97;5074327;28;45499;-79
2023/12/15 10:48:54;;;;;;;;;25.75;18.50;;;;;21.28;44.56;103240.38;5056403;28;45435;-78
2023/12/15 10:51:24;;;;;;;;;23.25;21.75;;;;;21.34;44.01;103243.72;5074437;28;45298;-77
2023/12/15 10:53:53;;;;;;;;;21.25;21.25;;;;;21.30;44.15;103252.13;5074166;28;45422;-78
2023/12/15 10:56:18;;;;;;;;;19.25;19.00;;;;;21.30;44.52;103254.84;5055959;28;47218;-76
2023/12/15 10:58:44;;;;;;;;;26.50;20.50;;;;;21.43;44.52;103264.19;5062595;28;45460;-77
2023/12/15 11:01:11;;;;;;;;;25.25;20.50;;;;;21.48;44.56;103265.69;5054357;28;46051;-78
2023/12/15 11:03:41;;;;;;;;;18.00;18.00;;;;;21.58;44.31;103276.16;5078102;28;45323;-77
2023/12/15 11:06:07;;;;;;;;;27.50;20.75;;;;;21.61;44.42;103282.31;5077364;28;45404;-77
2023/12/15 11:08:33;;;;;;;;;26.25;20.75;;;;;21.66;44.49;103298.47;5078005;28;45374;-77
2023/12/15 11:10:58;;;;;;;;;23.25;23.00;;;;;21.51;44.43;103302.88;5078153;28;45421;-77
2023/12/15 11:13:51;;;;;;;;;20.50;18.25;;;;;21.56;44.97;103299.91;5077648;28;45514;-78
2023/12/15 11:16:18;;;;;;;;;16.00;16.00;;;;;21.58;44.71;103307.06;5074761;28;47328;-76
2023/12/15 11:18:43;;;;;;;;;23.50;21.25;;;;;21.60;44.72;103301.53;5071452;28;45311;-76
2023/12/15 11:21:12;;;;;;;;;21.50;19.00;;;;;21.68;44.39;103313.81;5078098;28;45749;-78
2023/12/15 11:23:58;;;;;;;;;20.75;14.50;;;;;21.73;44.56;103313.56;5077720;28;45432;-78
2023/12/15 11:26:28;;;;;;;;;23.25;21.75;;;;;21.69;44.39;103326.47;5077878;28;45578;-77
2023/12/15 11:29:06;;;;;;;;;22.50;18.00;;;;;21.37;44.69;103332.69;5059154;28;45304;-78
2023/12/15 11:31:33;;;;;;;;;22.00;21.25;;;;;21.06;44.96;103322.41;5077661;28;45588;-77
2023/12/15 11:33:59;;;;;;;;;25.25;19.00;;;;;21.02;45.43;103339.88;5077501;28;45478;-78
2023/12/15 11:36:30;;;;;;;;;21.50;18.25;;;;;20.80;45.92;103334.56;5077414;28;46304;-77
2023/12/15 11:38:57;;;;;;;;;21.00;17.25;;;;;20.87;46.06;103337.88;5079322;28;45422;-77
2023/12/15 11:41:23;;;;;;;;;18.75;17.75;;;;;20.58;46.44;103320.22;5077818;28;45371;-76
2023/12/15 11:43:50;;;;;;;;;21.50;19.25;;;;;20.63;46.26;103327.19;5059155;28;46531;-77
2023/12/15 11:46:19;;;;;;;;;23.25;20.00;;;;;20.59;46.38;103279.22;5077346;28;46923;-77
2023/12/15 11:48:45;;;;;;;;;25.50;22.50;;;;;20.71;46.24;103265.03;5077566;28;45343;-75
2023/12/15 11:51:11;;;;;;;;;23.25;22.50;;;;;20.62;46.30;103248.22;5060203;28;45385;-77
2023/12/15 11:53:41;;;;;;;;;16.25;16.00;;;;;20.85;46.08;103255.25;5078086;28;45457;-75
2023/12/15 11:56:10;;;;;;;;;16.75;15.25;;;;;20.93;45.69;103258.50;5076863;28;46281;-76
2023/12/15 11:58:35;;;;;;;;;19.75;19.00;;;;;20.89;45.86;103257.78;5065416;28;45358;-78
2023/12/15 12:01:02;;;;;;;;;20.00;19.50;;;;;20.88;45.37;103252.41;5073420;28;45257;-78
2023/12/15 12:03:31;;;;;;;;;19.75;17.00;;;;;20.94;45.55;103252.97;5074424;28;45444;-76
2023/12/15 12:05:57;;;;;;;;;17.75;17.75;;;;;20.91;45.36;103255.88;5076663;28;46254;-79
2023/12/15 12:08:22;;;;;;;;;19.00;19.00;;;;;21.00;45.37;103287.25;5077343;28;45413;-77
2023/12/15 12:10:50;;;;;;;;;19.00;17.50;;;;;21.00;45.44;103293.59;5077184;28;45321;-79
2023/12/15 12:13:16;;;;;;;;;22.25;22.00;;;;;20.99;45.01;103286.38;5076447;28;45544;-76
2023/12/15 12:15:52;;;;;;;;;20.75;18.50;;;;;21.12;45.06;103298.44;5064174;28;46078;-76
2023/12/15 12:18:19;;;;;;;;;21.25;18.50;;;;;21.31;44.88;103319.38;5062742;28;45192;-75
2023/12/15 12:20:45;;;;;;;;;18.75;16.25;;;;;21.34;44.63;103330.16;5074887;28;45381;-77
2023/12/15 12:23:10;;;;;;;;;23.00;19.25;;;;;21.29;43.76;103302.19;5069259;28;45537;-78
2023/12/15 12:25:35;;;;;;;;;18.75;16.00;;;;;21.37;43.84;103309.03;5074075;28;45350;-76
2023/12/15 12:28:01;;;;;;;;;19.00;15.00;;;;;21.31;43.86;103292.97;5077295;28;45449;-79
2023/12/15 12:30:28;;;;;;;;;21.75;20.75;;;;;21.58;43.57;103312.53;5076996;28;45201;-78
2023/12/15 12:32:53;;;;;;;;;19.00;19.00;;;;;21.58;43.28;103312.53;5077373;28;45474;-79
2023/12/15 12:35:18;;;;;;;;;17.50;14.00;;;;;21.57;42.12;103299.81;5047160;28;47211;-79
2023/12/15 12:37:44;;;;;;;;;15.25;15.25;;;;;21.40;42.50;103300.69;5063904;28;46087;-78
2023/12/15 12:40:11;;;;;;;;;20.50;17.75;;;;;21.45;42.21;103311.34;5055757;28;45528;-80
2023/12/15 12:42:36;;;;;;;;;14.50;14.50;;;;;21.34;41.87;103300.13;5059330;28;46159;-79
2023/12/15 12:45:02;;;;;;;;;19.25;15.50;;;;;21.31;41.58;103305.72;5076681;28;45335;-79
2023/12/15 12:47:28;;;;;;;;;13.00;13.00;;;;;21.28;41.62;103319.50;5077163;28;45284;-81
2023/12/15 12:49:54;;;;;;;;;15.00;15.00;;;;;21.35;42.02;103326.47;5077545;28;45338;-79
2023/12/15 12:52:19;;;;;;;;;15.00;13.50;;;;;21.44;41.80;103340.50;5077423;28;45349;-79
2023/12/15 12:54:44;;;;;;;;;17.75;17.75;;;;;21.28;41.57;103289.50;5076390;28;54738;-79
2023/12/15 12:57:09;;;;;;;;;18.00;17.00;;;;;21.40;41.97;103310.72;5076542;28;50213;-75
2023/12/15 12:59:36;;;;;;;;;20.25;18.00;;;;;21.43;42.01;103319.66;5060663;28;45350;-78
2023/12/15 13:02:01;;;;;;;;;16.75;16.50;;;;;21.24;42.25;103310.63;5058855;28;46213;-78
2023/12/15 13:04:26;;;;;;;;;17.50;16.00;;;;;21.14;42.39;103318.34;5076974;28;46302;-79
2023/12/15 13:06:52;;;;;;;;;16.50;15.25;;;;;20.87;42.64;103297.88;5076722;28;45509;-79
2023/12/15 13:09:18;;;;;;;;;16.50;15.00;;;;;20.75;42.66;103293.91;5076784;28;45414;-78
2023/12/15 13:11:48;;;;;;;;;15.25;15.25;;;;;20.74;43.31;103327.59;5058938;28;47341;-77
2023/12/15 13:14:14;;;;;;;;;18.75;14.75;;;;;20.74;43.29;103329.44;5076667;28;45752;-79
2023/12/15 13:16:40;;;;;;;;;17.00;16.25;;;;;20.70;42.67;103297.81;5070879;28;45438;-79
2023/12/15 13:19:06;;;;;;;;;16.75;16.75;;;;;20.99;42.81;103313.66;5074305;28;45341;-78
2023/12/15 13:21:32;;;;;;;;;15.00;14.00;;;;;21.10;42.96;103332.19;5076372;28;45385;-79
2023/12/15 13:23:57;;;;;;;;;17.00;17.00;;;;;21.19;42.26;103337.22;5075815;28;46103;-78
2023/12/15 13:26:25;;;;;;;;;22.50;16.25;;;;;21.11;42.11;103317.59;5076660;28;46003;-78
2023/12/15 13:28:52;;;;;;;;;16.00;14.00;;;;;21.08;41.96;103323.22;5063245;28;45358;-80
2023/12/15 13:31:19;;;;;;;;;18.25;15.50;;;;;21.11;42.05;103334.84;5076939;28;45357;-79
2023/12/15 13:33:47;;;;;;;;;16.25;15.00;;;;;20.97;42.57;103334.66;5076751;28;46315;-79
2023/12/15 13:36:16;;;;;;;;;18.00;15.50;;;;;20.87;42.77;103344.22;5057254;28;45645;-79
2023/12/15 13:38:42;;;;;;;;;20.25;17.25;;;;;20.77;42.43;103319.25;5075523;28;45429;-79
2023/12/15 13:41:08;;;;;;;;;18.75;14.00;;;;;21.01;42.40;103330.78;5057122;28;46997;-78
2023/12/15 13:43:37;;;;;;;;;15.50;15.00;;;;;20.98;42.94;103316.44;5075375;28;45358;-79
2023/12/15 13:46:05;;;;;;;;;17.75;14.00;;;;;21.01;42.35;103328.06;5075722;28;45425;-80
2023/12/15 13:48:31;;;;;;;;;19.25;17.50;;;;;20.92;42.38;103328.53;5076533;28;45350;-80
2023/12/15 13:50:56;;;;;;;;;17.75;14.50;;;;;20.84;42.76;103314.38;5076665;28;45500;-80
2023/12/15 13:53:22;;;;;;;;;16.25;15.00;;;;;20.84;42.53;103313.50;5061174;28;48083;-79
2023/12/15 13:55:48;;;;;;;;;16.50;13.75;;;;;20.80;42.40;103334.56;5078675;28;45498;-78
2023/12/15 13:58:13;;;;;;;;;15.50;15.00;;;;;20.90;42.56;103337.75;5068919;28;45217;-79
2023/12/15 14:00:38;;;;;;;;;10.50;10.00;;;;;20.80;42.23;103330.97;5068931;28;45553;-80
2023/12/15 14:03:04;;;;;;;;;17.50;16.00;;;;;20.91;42.86;103340.41;5057988;28;48454;-78
2023/12/15 14:05:29;;;;;;;;;14.00;13.75;;;;;21.07;42.33;103348.72;5077600;28;45329;-79
2023/12/15 14:07:55;;;;;;;;;10.50;8.75;;;;;20.99;41.34;103356.41;5077240;28;45792;-80
2023/12/15 14:10:20;;;;;;;;;9.75;8.25;;;;;20.86;40.61;103353.34;5072154;28;45375;-80
2023/12/15 14:12:46;;;;;;;;;7.25;7.25;;;;;20.77;40.33;103349.22;5075505;28;45307;-79
2023/12/15 14:15:12;;;;;;;;;6.25;6.00;;;;;20.74;38.93;103326.69;5057292;28;45359;-78
2023/12/15 14:17:38;;;;;;;;;7.75;6.25;;;;;20.67;38.86;103336.13;5068023;28;45341;-78
2023/12/15 14:20:07;;;;;;;;;9.25;6.50;;;;;20.72;38.37;103334.94;5075450;28;45721;-78
2023/12/15 14:22:35;;;;;;;;;7.75;6.25;;;;;20.74;38.75;103343.94;5075021;28;45430;-79
2023/12/15 14:25:04;;;;;;;;;10.75;6.75;;;;;20.82;38.59;103331.78;5075267;28;45513;-78
2023/12/15 14:27:33;;;;;;;;;6.50;5.00;;;;;20.95;38.63;103362.94;5056638;28;45392;-78
2023/12/15 14:29:59;;;;;;;;;8.50;8.50;;;;;21.08;38.64;103365.03;5075614;28;45681;-79
2023/12/15 14:32:25;;;;;;;;;7.50;6.00;;;;;21.18;38.86;103367.34;5074932;28;45239;-78
2023/12/15 14:34:51;;;;;;;;;8.50;7.50;;;;;20.98;38.29;103355.50;5074769;28;45439;-79
2023/12/15 14:37:17;;;;;;;;;7.00;6.00;;;;;21.00;38.99;103380.00;5074979;28;45352;-80
2023/12/15 14:39:42;;;;;;;;;11.25;8.25;;;;;20.91;38.72;103378.59;5074578;28;45601;-79
2023/12/15 14:42:08;;;;;;;;;8.25;6.50;;;;;20.95;38.63;103391.09;5056974;28;46185;-80
2023/12/15 14:44:33;;;;;;;;;5.25;5.25;;;;;21.07;38.77;103414.19;5076080;28;45451;-78
2023/12/15 14:46:59;;;;;;;;;8.00;4.25;;;;;20.78;37.37;103394.63;5075560;28;45614;-78
2023/12/15 14:49:25;;;;;;;;;8.75;5.50;;;;;20.79;37.88;103409.16;5075723;28;45323;-79
2023/12/15 14:51:50;;;;;;;;;6.50;5.00;;;;;20.68;37.44;103397.84;5075072;28;46489;-78
2023/12/15 14:54:15;;;;;;;;;2.00;2.00;;;;;20.75;37.79;103402.09;5056005;28;45829;-79
2023/12/15 14:56:40;;;;;;;;;5.00;4.00;;;;;20.85;37.91;103397.94;5075583;28;45296;-79
2023/12/15 14:59:06;;;;;;;;;12.00;5.00;;;;;20.71;37.60;103371.34;5058596;28;48184;-78
2023/12/15 15:01:32;;;;;;;;;7.00;7.00;;;;;20.96;37.77;103406.50;5056387;28;48104;-79
2023/12/15 15:03:58;;;;;;;;;11.00;5.75;;;;;20.84;38.18;103406.22;5075002;28;45501;-80
2023/12/15 15:06:23;;;;;;;;;5.25;5.25;;;;;20.80;38.50;103405.47;5074316;28;45346;-78
2023/12/15 15:08:48;;;;;;;;;11.75;9.25;;;;;20.76;38.37;103410.16;5074992;28;45318;-79
2023/12/15 15:11:14;;;;;;;;;8.75;8.00;;;;;20.47;38.54;103364.31;5074416;28;53065;-78
2023/12/15 15:13:39;;;;;;;;;11.25;9.50;;;;;20.72;38.53;103388.59;5074437;28;45255;-77
2023/12/15 15:16:05;;;;;;;;;7.25;7.25;;;;;20.69;38.85;103400.50;5073118;28;45449;-78
2023/12/15 15:18:34;;;;;;;;;7.50;7.25;;;;;20.56;38.82;103385.69;5066508;28;45338;-78
2023/12/15 15:21:00;;;;;;;;;8.75;8.75;;;;;20.65;38.67;103393.44;5074694;28;46165;-81
2023/12/15 15:23:25;;;;;;;;;13.25;7.50;;;;;20.54;38.52;103395.78;5075290;28;45514;-79
2023/12/15 15:25:51;;;;;;;;;3.25;3.25;;;;;20.52;39.15;103397.66;5075822;28;45551;-78
2023/12/15 15:28:16;;;;;;;;;11.25;6.25;;;;;20.59;38.35;103399.16;5056170;28;46137;-79
2023/12/15 15:30:42;;;;;;;;;8.00;6.50;;;;;20.61;37.90;103404.53;5074440;28;46670;-79
2023/12/15 15:33:09;;;;;;;;;11.25;7.75;;;;;20.57;38.20;103401.09;5074422;28;45401;-78
2023/12/15 15:35:35;;;;;;;;;7.00;7.00;;;;;20.43;38.29;103381.75;5056716;28;45469;-78
2023/12/15 15:38:00;;;;;;;;;7.00;5.00;;;;;20.67;38.89;103415.19;5074348;28;45285;-79
2023/12/15 15:40:25;;;;;;;;;9.50;7.00;;;;;20.71;37.79;103412.22;5073623;28;50649;-82
2023/12/15 15:42:51;;;;;;;;;7.00;5.00;;;;;20.60;38.89;103392.75;5074789;28;45481;-78
2023/12/15 15:45:20;;;;;;;;;6.25;6.25;;;;;20.76;38.33;103420.19;5075635;28;45350;-79
2023/12/15 15:47:46;;;;;;;;;8.50;7.50;;;;;20.65;38.17;103406.19;5078161;28;45306;-78
2023/12/15 15:50:11;;;;;;;;;9.50;7.00;;;;;20.56;38.31;103414.78;5078023;28;46028;-78
2023/12/15 15:52:37;;;;;;;;;7.25;5.50;;;;;20.54;38.75;103416.69;5059408;28;45319;-79
2023/12/15 15:55:02;;;;;;;;;10.00;6.50;;;;;20.61;38.66;103418.19;5059006;28;45383;-80
2023/12/15 15:57:28;;;;;;;;;5.75;5.75;;;;;20.36;37.73;103408.38;5074814;28;45354;-79
2023/12/15 15:59:54;;;;;;;;;5.00;4.75;;;;;20.50;37.78;103443.19;5064118;28;45275;-79
2023/12/15 16:02:20;;;;;;;;;5.50;5.50;;;;;20.48;37.49;103433.31;5078417;28;45509;-79
2023/12/15 16:04:46;;;;;;;;;8.25;7.00;;;;;20.38;37.32;103424.66;5077594;28;45501;-78
2023/12/15 16:07:11;;;;;;;;;7.00;5.25;;;;;20.36;37.45;103438.34;5060186;28;47123;-79
2023/12/15 16:09:36;;;;;;;;;4.00;4.00;;;;;20.36;37.39;103442.91;5077689;28;46153;-79
2023/12/15 16:12:02;;;;;;;;;4.00;1.00;;;;;20.37;37.29;103444.69;5077742;28;51116;-78
2023/12/15 16:14:27;;;;;;;;;6.75;5.50;;;;;20.19;37.65;103412.78;5078064;28;45543;-77
2023/12/15 16:16:53;;;;;;;;;6.00;6.00;;;;;20.26;37.40;103438.78;5069862;28;49858;-80
2023/12/15 16:19:20;;;;;;;;;5.75;4.00;;;;;20.13;37.16;103423.94;5076322;28;45469;-77
2023/12/15 16:21:45;;;;;;;;;7.00;6.00;;;;;20.16;37.74;103429.28;5059159;28;45509;-80
2023/12/15 16:24:10;;;;;;;;;10.00;7.00;;;;;20.03;37.31;103440.69;5076135;28;55889;-84
2023/12/15 16:26:37;;;;;;;;;10.25;6.00;;;;;20.09;37.57;103438.63;5076950;28;45330;-78
2023/12/15 16:29:02;;;;;;;;;4.75;4.00;;;;;20.12;37.58;103463.03;5058475;28;48564;-83
2023/12/15 16:31:28;;;;;;;;;6.75;4.00;;;;;20.01;36.98;103453.47;5077586;28;45499;-79
2023/12/15 16:33:54;;;;;;;;;7.50;5.75;;;;;20.07;37.68;103465.06;5058435;28;45781;-79
2023/12/15 16:36:22;;;;;;;;;8.50;6.75;;;;;19.85;37.67;103426.97;5076889;28;45372;-77
2023/12/15 16:38:48;;;;;;;;;12.25;6.50;;;;;20.07;37.78;103451.47;5078047;28;45213;-79